Time;durP1;ratioP1;P1;durP2;ratioP2;P2;SDS_P1;SDS_P2;PMS_P1;PMS_P2;Temp;Humidity;BMP_temperature;BMP_pressure;BME280_temperature;BME280_humidity;BME280_pressure;Samples;Min_cycle;Max_cycle;Signal;HPM_P1;HPM_P2
2022/05/13 00:02:53;;;;;;;4.78;3.10;;;;;;;10.72;60.69;100587.73;3413847;81;20990;-76
2022/05/13 00:07:45;;;;;;;6.30;3.45;;;;;;;10.65;60.52;100600.19;3409890;81;21031;-76
2022/05/13 00:12:44;;;;;;;8.03;3.80;;;;;;;10.59;60.85;100607.48;3407747;81;21025;-76
2022/05/13 00:17:33;;;;;;;6.37;4.10;;;;;;;10.53;61.00;100603.91;3450154;81;21448;-76
2022/05/13 00:22:25;;;;;;;8.03;3.37;;;;;;;10.48;61.26;100606.42;3451421;81;20974;-76
2022/05/13 00:27:16;;;;;;;3.75;3.10;;;;;;;10.47;61.33;100607.28;3383527;81;20975;-76
2022/05/13 00:32:08;;;;;;;6.03;3.90;;;;;;;10.43;61.44;100605.50;3478732;81;20982;-76
2022/05/13 00:36:59;;;;;;;8.80;4.03;;;;;;;10.46;61.40;100605.52;3428119;81;22147;-76
2022/05/13 00:41:50;;;;;;;5.50;3.67;;;;;;;10.44;61.49;100607.23;3425058;81;21158;-76
2022/05/13 00:46:41;;;;;;;7.13;4.20;;;;;;;10.39;61.82;100606.28;3450621;81;20934;-76
2022/05/13 00:51:43;;;;;;;7.42;3.27;;;;;;;10.34;61.82;100606.63;3450226;81;21165;-76
2022/05/13 00:56:35;;;;;;;9.50;4.58;;;;;;;10.27;62.17;100603.91;3417751;81;21364;-76
2022/05/13 01:01:26;;;;;;;5.08;3.37;;;;;;;10.23;62.18;100605.12;3425875;81;20974;-76
2022/05/13 01:06:22;;;;;;;10.38;4.05;;;;;;;10.19;62.27;100609.39;3379999;81;20919;-75
2022/05/13 01:11:18;;;;;;;9.48;4.22;;;;;;;10.14;62.46;100612.77;3396755;81;21233;-76
2022/05/13 01:16:09;;;;;;;4.12;3.42;;;;;;;10.08;62.48;100616.14;3472318;81;20935;-76
2022/05/13 01:21:03;;;;;;;8.50;3.85;;;;;;;10.05;62.52;100609.58;3406655;81;21109;-76
2022/05/13 01:26:03;;;;;;;5.78;3.42;;;;;;;10.00;62.69;100615.15;3415969;81;20989;-76
2022/05/13 01:30:59;;;;;;;5.75;3.90;;;;;;;9.99;63.05;100612.09;3465468;81;20982;-76
2022/05/13 01:35:53;;;;;;;5.40;3.47;;;;;;;9.95;63.02;100603.80;3420774;81;21009;-76
2022/05/13 01:40:45;;;;;;;10.15;4.83;;;;;;;9.97;63.18;100613.35;3417701;81;21242;-76
2022/05/13 01:45:38;;;;;;;5.05;3.80;;;;;;;9.95;63.42;100619.38;3426858;81;21164;-76
2022/05/13 01:50:29;;;;;;;7.70;3.33;;;;;;;9.93;63.22;100628.00;3396153;81;20943;-76
2022/05/13 01:55:22;;;;;;;6.92;3.72;;;;;;;9.88;63.68;100627.05;3426365;81;20990;-76
2022/05/13 02:00:14;;;;;;;4.08;3.55;;;;;;;9.88;63.68;100627.05;3424402;81;21468;-76
2022/05/13 02:05:05;;;;;;;5.95;3.42;;;;;;;9.89;63.72;100627.51;3398106;81;20971;-76
2022/05/13 02:09:56;;;;;;;6.30;3.83;;;;;;;9.86;63.57;100622.25;3389492;82;20947;-76
2022/05/13 02:14:47;;;;;;;6.50;3.42;;;;;;;9.84;63.33;100622.65;3377533;83;20935;-76
2022/05/13 02:19:38;;;;;;;7.97;3.50;;;;;;;9.84;63.64;100624.38;3356923;83;21749;-76
2022/05/13 02:24:29;;;;;;;7.30;4.50;;;;;;;9.84;63.91;100612.27;3330223;83;21026;-76
2022/05/13 02:29:20;;;;;;;7.55;3.80;;;;;;;9.77;63.76;100613.00;3357233;83;21619;-76
2022/05/13 02:34:11;;;;;;;5.05;3.42;;;;;;;9.77;63.90;100615.59;3444610;81;21042;-76
2022/05/13 02:39:03;;;;;;;5.70;4.15;;;;;;;9.76;63.93;100622.05;3377684;83;21092;-76
2022/05/13 02:43:55;;;;;;;7.70;3.75;;;;;;;9.77;64.16;100624.68;3374295;83;21468;-76
2022/05/13 02:48:47;;;;;;;7.83;4.10;;;;;;;9.75;64.20;100610.80;3381952;83;21568;-76
2022/05/13 02:53:38;;;;;;;5.65;4.25;;;;;;;9.66;64.11;100612.80;3366563;83;20975;-76
2022/05/13 02:58:29;;;;;;;6.37;4.03;;;;;;;9.51;64.10;100607.30;3342327;83;21935;-76
2022/05/13 03:03:20;;;;;;;8.27;4.47;;;;;;;9.51;64.10;100607.30;3363761;83;20912;-76
2022/05/13 03:08:11;;;;;;;5.20;3.77;;;;;;;9.43;64.58;100599.37;3431012;80;21241;-76
2022/05/13 03:13:05;;;;;;;7.45;4.90;;;;;;;9.37;64.57;100591.45;3452085;81;20986;-76
2022/05/13 03:17:56;;;;;;;7.75;5.35;;;;;;;9.32;64.70;100601.75;3478402;80;20967;-76
2022/05/13 03:22:49;;;;;;;12.63;5.70;;;;;;;9.34;64.60;100601.79;3447629;80;21088;-76
2022/05/13 03:27:41;;;;;;;10.32;5.87;;;;;;;9.32;64.63;100598.30;3501902;80;20985;-76
2022/05/13 03:32:33;;;;;;;12.25;5.62;;;;;;;9.26;64.81;100602.05;3411155;81;21027;-76
2022/05/13 03:37:24;;;;;;;9.75;6.17;;;;;;;9.43;65.31;100599.37;3353461;81;20936;-76
2022/05/13 03:42:15;;;;;;;9.08;6.33;;;;;;;9.43;65.31;100599.37;3439804;81;21022;-76
2022/05/13 03:47:07;;;;;;;9.73;6.35;;;;;;;9.80;64.84;100588.39;3455634;80;21029;-76
2022/05/13 03:51:59;;;;;;;11.12;6.58;;;;;;;10.09;64.77;100584.12;3444598;81;20970;-77
2022/05/13 03:56:50;;;;;;;11.70;6.15;;;;;;;10.25;64.51;100588.72;3498344;80;20919;-77
2022/05/13 04:01:41;;;;;;;10.18;6.92;;;;;;;10.09;64.48;100591.92;3481028;80;20955;-76
2022/05/13 04:16:04;;;;;;;13.28;7.58;;;;;;;10.02;64.97;100609.55;3382177;81;21073;-77
2022/05/13 04:16:35;;;;;;;10.00;6.33;;;;;;;10.10;65.62;100604.94;3453201;81;20917;-76
2022/05/13 04:21:32;;;;;;;17.52;7.03;;;;;;;10.18;65.49;100597.27;3383820;82;20988;-76
2022/05/13 04:26:24;;;;;;;14.55;7.80;;;;;;;10.19;65.56;100599.00;3495667;80;20931;-76
2022/05/13 04:31:23;;;;;;;12.20;6.70;;;;;;;10.22;65.89;100589.97;3484862;80;20974;-76
2022/05/13 04:36:15;;;;;;;12.13;6.97;;;;;;;10.24;65.95;100594.75;3489433;80;22084;-76
2022/05/13 04:46:18;;;;;;;9.63;6.28;;;;;;;10.39;66.48;100595.48;3457143;80;20979;-76
2022/05/13 04:51:10;;;;;;;9.20;6.58;;;;;;;10.50;66.78;100598.25;3389169;81;21022;-76
2022/05/13 04:56:04;;;;;;;5.85;5.17;;;;;;;10.62;66.89;100593.23;3439545;81;20939;-76
2022/05/13 05:00:58;;;;;;;9.18;5.95;;;;;;;10.88;66.73;100581.02;3508423;80;21910;-76
2022/05/13 05:05:50;;;;;;;4.65;3.87;;;;;;;10.88;66.73;100581.02;3439207;81;20909;-76
2022/05/13 05:10:43;;;;;;;10.03;5.28;;;;;;;11.09;66.64;100579.53;3388162;81;21537;-76
2022/05/13 05:15:38;;;;;;;5.70;4.42;;;;;;;11.35;66.52;100580.73;3376430;83;20990;-76
2022/05/13 05:20:30;;;;;;;7.55;3.87;;;;;;;11.57;66.15;100570.55;3389756;82;20971;-76
2022/05/13 05:25:22;;;;;;;5.97;3.62;;;;;;;11.80;65.82;100571.68;3467294;80;21262;-76
2022/05/13 05:30:16;;;;;;;6.53;4.22;;;;;;;12.03;64.71;100569.73;3479323;80;20937;-76
2022/05/13 05:35:17;;;;;;;7.37;3.02;;;;;;;12.27;64.22;100564.27;3486619;80;20967;-76
2022/05/13 05:40:10;;;;;;;6.65;3.25;;;;;;;12.56;63.45;100562.74;3383098;81;20967;-76
2022/05/13 05:45:02;;;;;;;6.03;3.15;;;;;;;12.83;62.44;100565.08;3466842;80;20941;-76
2022/05/13 05:49:53;;;;;;;3.72;2.35;;;;;;;13.08;62.10;100567.81;3527263;80;22134;-77
2022/05/13 05:59:54;;;;;;;4.05;2.12;;;;;;;13.64;60.33;100571.05;3470468;80;20959;-76
2022/05/13 06:04:46;;;;;;;6.42;2.50;;;;;;;14.58;59.04;100563.70;3513126;80;21001;-77
2022/05/13 06:09:39;;;;;;;5.28;2.17;;;;;;;16.74;56.01;100565.84;3389181;83;21048;-77
2022/05/13 06:14:30;;;;;;;4.95;1.72;;;;;;;17.32;54.67;100570.89;3349832;82;20977;-77
2022/05/13 06:19:21;;;;;;;3.70;2.20;;;;;;;19.42;52.67;100566.41;3396930;82;21752;-77
2022/05/13 06:24:13;;;;;;;4.30;1.90;;;;;;;19.76;50.66;100559.08;3423102;82;20947;-76
2022/05/13 06:29:05;;;;;;;6.67;2.52;;;;;;;20.46;49.46;100566.14;3381512;83;21000;-74
2022/05/13 06:33:56;;;;;;;3.95;1.85;;;;;;;19.64;49.57;100569.88;3433977;81;20994;-74
2022/05/13 06:38:47;;;;;;;3.65;1.72;;;;;;;19.70;47.24;100564.45;3372566;83;21193;-74
2022/05/13 06:43:39;;;;;;;4.87;2.67;;;;;;;19.77;47.13;100570.03;3385364;83;20939;-74
2022/05/13 06:48:29;;;;;;;4.53;1.60;;;;;;;19.81;46.38;100567.72;3445463;80;21479;-74
2022/05/13 06:53:22;;;;;;;3.58;1.30;;;;;;;19.34;46.47;100559.10;3444078;80;21556;-74
2022/05/13 06:58:15;;;;;;;1.55;1.35;;;;;;;19.78;45.37;100559.02;3465881;80;21459;-74
2022/05/13 07:03:16;;;;;;;3.98;1.17;;;;;;;22.51;42.52;100551.16;3464751;81;21068;-80
2022/05/13 07:08:09;;;;;;;1.37;1.05;;;;;;;22.87;42.36;100542.33;3446302;81;20907;-78
2022/05/13 07:13:04;;;;;;;2.10;1.07;;;;;;;23.64;39.75;100541.20;3384091;81;20970;-80
2022/05/13 07:17:55;;;;;;;4.13;1.40;;;;;;;25.58;37.89;100539.40;3413734;81;21022;-80
2022/05/13 07:22:47;;;;;;;2.52;1.40;;;;;;;27.28;35.23;100535.09;3472948;80;21528;-86
2022/05/13 07:27:38;;;;;;;3.05;1.60;;;;;;;30.52;33.04;100532.44;3392486;81;21129;-78
2022/05/13 07:32:30;;;;;;;5.72;1.57;;;;;;;32.72;29.59;100528.80;3376293;81;21022;-83
2022/05/13 07:37:21;;;;;;;1.50;1.40;;;;;;;34.39;27.31;100516.82;3384426;81;21026;-80
2022/05/13 07:42:13;;;;;;;6.53;1.65;;;;;;;35.70;25.75;100521.42;3473226;80;20903;-79
2022/05/13 07:47:08;;;;;;;1.42;1.10;;;;;;;36.38;24.19;100515.98;3387770;81;21037;-78
2022/05/13 07:51:59;;;;;;;3.40;1.62;;;;;;;36.56;23.37;100520.61;3399240;81;21560;-77
2022/05/13 07:56:50;;;;;;;2.15;1.20;;;;;;;34.80;22.32;100512.36;3448127;80;20958;-77
2022/05/13 08:01:41;;;;;;;4.17;1.37;;;;;;;32.78;23.76;100515.69;3445240;80;20895;-78
2022/05/13 08:06:32;;;;;;;2.27;1.10;;;;;;;30.62;25.60;100509.38;3516353;80;20979;-81
2022/05/13 08:11:28;;;;;;;4.43;1.20;;;;;;;29.68;25.93;100510.83;3500818;80;21017;-83
2022/05/13 08:16:26;;;;;;;2.35;1.25;;;;;;;29.87;25.24;100508.67;3470763;80;21155;-81
2022/05/13 08:21:17;;;;;;;0.95;0.88;;;;;;;29.30;25.36;100509.70;3463984;80;20960;-80
2022/05/13 08:26:11;;;;;;;2.65;1.20;;;;;;;27.88;25.72;100509.44;3448686;80;21443;-79
2022/05/13 08:31:02;;;;;;;1.82;1.37;;;;;;;28.24;25.93;100495.74;3529912;80;20926;-82
2022/05/13 08:36:00;;;;;;;3.75;1.20;;;;;;;28.88;25.98;100494.91;3519092;80;20997;-81
2022/05/13 08:41:12;;;;;;;1.92;1.00;;;;;;;31.20;23.31;100494.09;3468487;80;21216;-80
2022/05/13 08:46:18;;;;;;;1.32;1.00;;;;;;;29.03;25.25;100493.58;3488294;80;20991;-79
2022/05/13 08:51:18;;;;;;;;;;;;;;;27.25;26.15;100485.84;3329419;84;21130;-78
2022/05/13 08:56:14;;;;;;;5.25;1.55;;;;;;;27.43;25.77;100471.11;3332927;84;20088;-78
2022/05/13 09:01:11;;;;;;;3.33;1.25;;;;;;;26.76;26.99;100479.25;3333458;84;20923;-77
2022/05/13 09:06:13;;;;;;;2.27;0.90;;;;;;;26.48;26.90;100474.02;3350769;84;21332;-81
2022/05/13 09:11:31;;;;;;;1.40;1.25;;;;;;;27.92;25.90;100469.62;3324872;84;20961;-79
2022/05/13 09:16:43;;;;;;;2.40;1.30;;;;;;;27.20;26.08;100477.23;3355298;85;20974;-80
2022/05/13 09:21:38;;;;;;;2.05;0.90;;;;;;;28.01;25.80;100461.05;3339829;83;21034;-81
2022/05/13 09:26:27;;;;;;;1.17;0.98;;;;;;;28.23;25.60;100462.42;3301851;86;21078;-80
2022/05/13 09:31:21;;;;;;;3.17;1.60;;;;;;;26.45;26.55;100466.17;3360052;81;21209;-80
2022/05/13 09:36:27;;;;;;;2.65;1.40;;;;;;;26.83;26.04;100457.96;3447343;81;20960;-83
2022/05/13 09:41:32;;;;;;;;;;;;;;;30.20;23.86;100447.00;3486070;81;20913;-80
2022/05/13 09:46:29;;;;;;;1.70;1.55;;;;;;;29.55;24.20;100440.66;3429991;81;20551;-80
2022/05/13 09:51:31;;;;;;;1.50;1.37;;;;;;;27.44;25.98;100434.13;3440919;81;21343;-83
2022/05/13 09:56:23;;;;;;;3.27;1.47;;;;;;;31.39;22.98;100413.87;3479036;81;21700;-78
2022/05/13 10:01:17;;;;;;;2.08;1.15;;;;;;;33.95;21.68;100419.02;3412280;81;21711;-82
2022/05/13 10:06:17;;;;;;;5.42;1.90;;;;;;;34.22;21.25;100403.64;3481154;81;21271;-82
2022/05/13 10:16:45;;;;;;;;;;;;;;;35.92;20.12;100393.17;3434803;81;22203;-84
2022/05/13 10:22:05;;;;;;;2.12;1.30;;;;;;;36.01;19.36;100386.88;3431378;81;20856;-77
2022/05/13 10:27:00;;;;;;;3.33;1.42;;;;;;;31.14;21.31;100395.57;3350496;84;21497;-76
2022/05/13 10:31:54;;;;;;;2.62;1.65;;;;;;;31.87;21.02;100390.97;3348822;84;21453;-80
2022/05/13 10:37:05;;;;;;;3.98;1.32;;;;;;;28.77;23.14;100387.73;3262961;84;20994;-83
2022/05/13 10:42:07;;;;;;;3.22;1.15;;;;;;;28.33;23.61;100380.68;3305756;84;20955;-82
2022/05/13 10:47:06;;;;;;;1.92;1.50;;;;;;;27.81;24.65;100376.70;3325543;84;21091;-79
2022/05/13 10:52:09;;;;;;;1.37;0.90;;;;;;;28.62;25.12;100376.21;3330849;84;21540;-83
2022/05/13 10:57:28;;;;;;;2.02;1.02;;;;;;;28.82;24.49;100369.57;3308348;84;20971;-81
2022/05/13 11:02:31;;;;;;;2.47;1.10;;;;;;;27.66;24.52;100367.81;3481423;81;21004;-82
2022/05/13 11:07:45;;;;;;;3.98;1.40;;;;;;;29.87;23.87;100359.95;3336153;84;21029;-75
2022/05/13 11:12:57;;;;;;;3.00;1.30;;;;;;;30.74;23.36;100351.50;3354651;84;21069;-79
2022/05/13 11:18:08;;;;;;;3.98;1.40;;;;;;;30.01;22.74;100350.46;3346214;83;21429;-78
2022/05/13 11:23:41;;;;;;;4.17;1.30;;;;;;;29.49;23.52;100337.10;3315875;84;20974;-75
2022/05/13 11:29:07;;;;;;;4.92;2.00;;;;;;;28.27;22.72;100336.97;3371144;84;21094;-76
2022/05/13 11:34:46;;;;;;;4.30;1.67;;;;;;;27.90;23.87;100340.56;3307959;84;21003;-77
2022/05/13 11:40:16;;;;;;;2.52;1.47;;;;;;;27.52;23.95;100325.91;3253229;86;21372;-77
2022/05/13 11:45:32;;;;;;;1.45;1.17;;;;;;;27.27;23.56;100318.51;3264690;85;21489;-77
2022/05/13 11:50:27;;;;;;;1.98;1.32;;;;;;;27.18;23.82;100319.02;3142678;88;21621;-78
2022/05/13 11:55:48;;;;;;;2.92;1.65;;;;;;;27.34;24.34;100309.67;3112896;89;21127;-81
2022/05/13 12:00:42;;;;;;;4.50;1.50;;;;;;;27.32;24.29;100293.75;3171438;88;21034;-82
2022/05/13 12:05:58;;;;;;;5.25;1.40;;;;;;;26.25;24.55;100310.88;3126264;88;21648;-81
2022/05/13 12:11:06;;;;;;;2.65;1.42;;;;;;;26.70;25.30;100290.24;3187504;88;21081;-82
2022/05/13 12:16:21;;;;;;;;;;;;;;;26.96;25.34;100284.27;3237382;86;21020;-81
2022/05/13 12:21:33;;;;;;;3.60;2.00;;;;;;;27.05;25.26;100286.88;3278846;86;20145;-80
2022/05/13 12:26:54;;;;;;;2.02;1.20;;;;;;;26.54;25.48;100287.10;3304181;82;20908;-76
2022/05/13 12:31:56;;;;;;;5.00;2.98;;;;;;;26.32;26.40;100284.76;3370854;82;21105;-81
2022/05/13 12:42:11;;;;;;;3.70;1.65;;;;;;;25.90;27.23;100273.28;3414109;82;20983;-77
2022/05/13 12:47:22;;;;;;;3.08;1.37;;;;;;;26.20;26.91;100259.67;3372821;83;21073;-77
2022/05/13 12:52:18;;;;;;;7.92;1.90;;;;;;;26.28;27.34;100263.72;3388267;83;21493;-80
2022/05/13 12:57:18;;;;;;;5.62;1.70;;;;;;;25.71;26.62;100264.11;3372929;83;21957;-76
2022/05/13 13:02:13;;;;;;;3.25;2.08;;;;;;;25.53;27.02;100260.63;3394879;83;20964;-79
2022/05/13 13:07:09;;;;;;;5.92;1.98;;;;;;;25.18;27.36;100251.29;3394199;83;20982;-81
2022/05/13 13:12:12;;;;;;;2.20;2.00;;;;;;;24.94;27.88;100247.61;3417525;80;21006;-78
2022/05/13 13:17:28;;;;;;;5.97;1.55;;;;;;;25.34;27.65;100245.59;3481480;81;20922;-77
2022/05/13 13:22:21;;;;;;;;;;;;;;;25.85;27.70;100239.78;3463599;81;21349;-78
2022/05/13 13:27:19;;;;;;;1.90;1.20;;;;;;;25.46;27.31;100227.66;3487305;81;20148;-77
2022/05/13 13:32:15;;;;;;;2.12;1.27;;;;;;;25.16;27.59;100231.41;3469559;80;21357;-78
2022/05/13 13:37:11;;;;;;;1.90;1.37;;;;;;;24.70;28.02;100231.07;3489194;80;20961;-78
2022/05/13 13:42:13;;;;;;;2.22;1.57;;;;;;;24.30;28.87;100223.70;3401656;81;20971;-80
2022/05/13 13:47:12;;;;;;;2.77;1.52;;;;;;;24.40;28.86;100224.98;3438341;80;21206;-78
2022/05/13 13:52:14;;;;;;;8.60;1.52;;;;;;;24.05;28.85;100214.70;3441618;81;20905;-79
2022/05/13 13:57:42;;;;;;;2.62;1.75;;;;;;;23.87;28.78;100222.59;3443460;81;20907;-79
2022/05/13 14:02:39;;;;;;;3.15;1.60;;;;;;;23.77;28.56;100218.15;3517556;80;20990;-78
2022/05/13 14:07:30;;;;;;;4.12;2.22;;;;;;;23.60;29.93;100230.84;3453556;80;20954;-78
2022/05/13 14:12:23;;;;;;;3.90;1.85;;;;;;;23.57;29.39;100215.08;3426974;81;21165;-79
2022/05/13 14:17:19;;;;;;;3.83;1.62;;;;;;;23.55;29.57;100218.23;3422922;81;22061;-78
2022/05/13 14:22:14;;;;;;;4.42;2.17;;;;;;;23.58;29.92;100219.44;3459813;81;20966;-78
2022/05/13 14:27:27;;;;;;;2.67;1.72;;;;;;;23.72;30.22;100208.68;3460162;81;21491;-79
2022/05/13 14:32:21;;;;;;;3.30;1.55;;;;;;;23.74;29.92;100208.14;3506593;80;20977;-79
2022/05/13 14:37:13;;;;;;;3.50;1.60;;;;;;;23.66;30.17;100221.77;3461266;79;21948;-78
2022/05/13 14:42:19;;;;;;;2.42;1.67;;;;;;;23.76;29.84;100207.13;3371616;81;21528;-80
2022/05/13 14:47:28;;;;;;;4.03;2.40;;;;;;;23.63;30.22;100205.09;3443899;82;20990;-78
2022/05/13 14:52:33;;;;;;;2.65;1.70;;;;;;;24.01;30.02;100192.75;3427447;81;22069;-78
2022/05/13 14:57:26;;;;;;;2.15;1.50;;;;;;;24.25;30.12;100178.78;3409730;81;21015;-77
2022/05/13 15:02:37;;;;;;;1.67;1.52;;;;;;;24.64;29.59;100163.14;3399846;82;21900;-77
2022/05/13 15:07:40;;;;;;;2.85;1.60;;;;;;;24.67;29.57;100163.47;3401994;82;33877;-79
2022/05/13 15:12:32;;;;;;;5.00;1.30;;;;;;;24.95;29.70;100161.60;3415400;81;20943;-77
2022/05/13 15:17:24;;;;;;;4.20;1.60;;;;;;;25.08;29.59;100157.34;3457210;80;20993;-87
2022/05/13 15:22:20;;;;;;;4.08;1.60;;;;;;;24.34;29.14;100151.77;3473247;80;20922;-79
2022/05/13 15:27:19;;;;;;;4.00;1.77;;;;;;;23.81;29.39;100153.02;3474384;80;21425;-78
2022/05/13 15:32:17;;;;;;;5.45;2.42;;;;;;;24.05;29.74;100145.67;3428152;80;21021;-79
2022/05/13 15:37:10;;;;;;;2.15;1.62;;;;;;;24.10;29.52;100146.31;3402888;81;20904;-79
2022/05/13 15:42:05;;;;;;;16.10;3.02;;;;;;;23.67;30.02;100137.70;3375958;81;21003;-79
2022/05/13 15:47:00;;;;;;;1.82;1.70;;;;;;;23.30;30.66;100142.03;3365802;81;21040;-78
2022/05/13 15:57:02;;;;;;;2.70;1.80;;;;;;;23.19;30.57;100135.41;3499233;80;21473;-79
2022/05/13 16:01:54;;;;;;;3.15;1.50;;;;;;;23.03;30.84;100129.03;3421425;80;21124;-79
2022/05/13 16:06:46;;;;;;;5.47;2.10;;;;;;;22.93;30.83;100121.97;3381353;81;20943;-79
2022/05/13 16:11:39;;;;;;;3.75;1.82;;;;;;;22.71;31.36;100103.47;3415803;81;21005;-79
2022/05/13 16:16:35;;;;;;;2.33;1.75;;;;;;;22.73;31.80;100099.43;3398701;81;21196;-79
2022/05/13 16:21:33;;;;;;;2.27;1.25;;;;;;;23.00;31.63;100105.30;3401487;81;20958;-79
2022/05/13 16:26:28;;;;;;;5.30;1.90;;;;;;;22.95;31.02;100099.38;3430983;81;20943;-80
2022/05/13 16:31:20;;;;;;;3.60;1.90;;;;;;;22.73;31.40;100098.10;3405961;81;21053;-80
2022/05/13 16:36:12;;;;;;;3.72;1.92;;;;;;;22.75;31.44;100100.22;3433920;81;20939;-80
2022/05/13 16:41:05;;;;;;;4.78;1.77;;;;;;;22.57;31.30;100096.57;3383295;81;21203;-80
2022/05/13 16:45:57;;;;;;;4.67;1.90;;;;;;;22.29;31.90;100093.78;3426525;81;21022;-80
2022/05/13 16:50:49;;;;;;;4.20;2.02;;;;;;;22.01;32.28;100100.16;3373931;80;21084;-80
2022/05/13 16:55:46;;;;;;;3.55;2.20;;;;;;;21.82;32.50;100109.74;3466983;81;20998;-78
2022/05/13 17:00:38;;;;;;;3.47;2.42;;;;;;;21.54;32.77;100113.47;3437618;81;21496;-80
2022/05/13 17:05:37;;;;;;;3.95;2.42;;;;;;;21.30;33.30;100111.23;3433697;81;21084;-77
2022/05/13 17:20:48;;;;;;;7.05;4.37;;;;;;;20.61;34.01;100118.97;3418276;81;21461;-78
2022/05/13 17:25:40;;;;;;;3.77;2.60;;;;;;;20.44;34.96;100122.16;3432135;81;21038;-78
2022/05/13 17:30:33;;;;;;;3.05;1.98;;;;;;;20.27;35.74;100142.52;3411304;81;20955;-78
2022/05/13 17:35:29;;;;;;;3.08;2.33;;;;;;;20.04;36.32;100177.55;3376600;81;21017;-78
2022/05/13 17:40:36;;;;;;;7.03;2.90;;;;;;;19.66;39.71;100223.91;3471926;81;21013;-79
2022/05/13 17:45:28;;;;;;;5.40;2.92;;;;;;;19.17;42.16;100262.12;3430236;81;21535;-79
2022/05/13 17:50:19;;;;;;;5.45;3.70;;;;;;;18.45;44.48;100274.78;3443704;81;20966;-79
2022/05/13 17:55:12;;;;;;;7.78;5.78;;;;;;;17.93;46.77;100264.53;3388712;81;21517;-79
2022/05/13 18:00:06;;;;;;;5.75;5.25;;;;;;;17.42;48.63;100247.95;3443341;81;21038;-79
2022/05/13 18:05:00;;;;;;;4.67;3.72;;;;;;;17.10;50.54;100235.41;3419109;81;21097;-78
2022/05/13 18:09:50;;;;;;;5.92;3.70;;;;;;;16.88;52.67;100245.39;3373936;82;20866;-79
2022/05/13 18:14:42;;;;;;;6.40;4.60;;;;;;;16.65;53.72;100270.66;3380549;81;21009;-78
2022/05/13 18:19:33;;;;;;;8.35;5.40;;;;;;;16.51;54.54;100281.37;3391018;81;21922;-78
2022/05/13 18:24:24;;;;;;;7.23;4.80;;;;;;;16.42;55.71;100276.23;3375678;81;21005;-78
2022/05/13 18:29:18;;;;;;;7.47;4.33;;;;;;;16.44;56.39;100278.42;3421881;81;20966;-78
2022/05/13 18:34:09;;;;;;;4.03;3.72;;;;;;;16.30;56.46;100270.28;3419863;81;20962;-78
2022/05/13 18:39:01;;;;;;;5.15;4.35;;;;;;;16.17;57.74;100272.66;3405934;81;21483;-78
2022/05/13 18:49:05;;;;;;;5.90;5.30;;;;;;;16.02;58.98;100275.02;3446651;81;20907;-77
2022/05/13 18:53:57;;;;;;;12.25;6.75;;;;;;;15.96;59.60;100281.20;3367688;82;21225;-78
2022/05/13 18:58:50;;;;;;;9.25;7.33;;;;;;;15.96;59.87;100308.73;3372439;82;20975;-77
2022/05/13 19:03:42;;;;;;;7.20;6.50;;;;;;;15.92;60.48;100324.08;3368120;82;21579;-77
2022/05/13 19:08:33;;;;;;;7.87;7.15;;;;;;;15.79;60.73;100325.09;3400261;82;21010;-77
2022/05/13 19:13:25;;;;;;;7.75;6.75;;;;;;;15.79;61.53;100325.98;3440227;80;20895;-77
2022/05/13 19:18:22;;;;;;;8.35;7.65;;;;;;;15.72;62.01;100336.06;3353028;82;20971;-77
2022/05/13 19:23:13;;;;;;;8.93;8.13;;;;;;;15.67;62.22;100348.77;3437511;82;21119;-77
2022/05/13 19:28:08;;;;;;;7.85;7.15;;;;;;;15.69;62.78;100341.33;3409978;82;20963;-77
2022/05/13 19:33:00;;;;;;;9.00;8.10;;;;;;;15.59;62.89;100360.19;3403460;81;20963;-77
2022/05/13 19:37:51;;;;;;;7.60;7.00;;;;;;;15.45;62.83;100359.45;3434557;82;20978;-77
2022/05/13 19:42:44;;;;;;;8.15;7.35;;;;;;;15.38;63.04;100373.48;3379172;82;20951;-77
2022/05/13 19:47:36;;;;;;;8.98;7.67;;;;;;;15.32;63.39;100380.95;3360167;82;21000;-77
2022/05/13 19:52:27;;;;;;;10.10;9.03;;;;;;;15.20;63.61;100387.59;3445227;81;21034;-77
2022/05/13 19:57:18;;;;;;;10.72;8.85;;;;;;;15.12;63.87;100398.12;3404427;83;20979;-77
2022/05/13 20:02:09;;;;;;;11.08;8.45;;;;;;;15.10;64.13;100399.89;3391677;82;20998;-77
2022/05/13 20:12:10;;;;;;;8.10;5.70;;;;;;;14.93;63.01;100401.29;3458265;82;20999;-77
2022/05/13 20:17:03;;;;;;;7.10;5.70;;;;;;;14.82;62.73;100413.13;3351744;82;21553;-77
2022/05/13 20:27:04;;;;;;;6.08;4.90;;;;;;;14.67;62.69;100435.02;3427773;82;21041;-77
2022/05/13 20:31:58;;;;;;;5.53;4.65;;;;;;;14.60;63.28;100438.98;3397850;82;21197;-77
2022/05/13 20:36:50;;;;;;;5.30;4.78;;;;;;;14.52;63.66;100449.87;3426368;82;20940;-77
2022/05/13 20:41:43;;;;;;;5.72;5.17;;;;;;;14.49;63.52;100421.55;3360408;82;20975;-77
2022/05/13 20:46:39;;;;;;;4.97;4.50;;;;;;;14.47;63.82;100408.05;3405864;82;21199;-77
2022/05/13 20:51:32;;;;;;;6.43;5.43;;;;;;;14.44;64.20;100404.99;3381682;82;20987;-77
2022/05/13 20:56:23;;;;;;;5.17;4.70;;;;;;;14.47;64.61;100427.67;3393351;81;20891;-77
2022/05/13 21:01:15;;;;;;;7.12;5.67;;;;;;;14.45;64.52;100431.59;3346603;82;21473;-77
2022/05/13 21:06:07;;;;;;;7.35;4.92;;;;;;;14.39;64.77;100437.27;3408800;81;20947;-77
2022/05/13 21:10:58;;;;;;;7.70;5.03;;;;;;;14.41;64.79;100437.69;3436991;82;21142;-77
2022/05/13 21:15:50;;;;;;;7.00;5.58;;;;;;;14.23;64.72;100446.91;3409521;82;20967;-77
2022/05/13 21:20:42;;;;;;;6.47;5.42;;;;;;;14.18;64.79;100440.81;3409460;82;20986;-77
2022/05/13 21:25:40;;;;;;;6.53;4.87;;;;;;;14.11;64.98;100441.25;3369272;81;20929;-77
2022/05/13 21:30:31;;;;;;;5.78;5.15;;;;;;;14.05;65.36;100447.36;3430946;82;20967;-77
2022/05/13 21:40:33;;;;;;;6.70;5.25;;;;;;;13.92;65.46;100445.66;3385029;81;20998;-76
2022/05/13 21:45:27;;;;;;;6.15;5.47;;;;;;;13.77;65.62;100443.05;3366015;82;20931;-76
2022/05/13 21:50:21;;;;;;;5.15;4.65;;;;;;;13.56;65.69;100444.80;3380925;82;21018;-76
2022/05/13 21:55:13;;;;;;;6.03;5.42;;;;;;;13.40;65.73;100446.97;3370984;81;20998;-77
2022/05/13 22:00:11;;;;;;;5.75;5.25;;;;;;;13.19;65.87;100467.34;3431606;81;21097;-76
2022/05/13 22:05:04;;;;;;;5.50;5.00;;;;;;;12.94;66.28;100477.27;3434490;82;21497;-76
2022/05/13 22:09:55;;;;;;;5.65;5.17;;;;;;;12.83;66.45;100484.19;3427443;82;20935;-76
2022/05/13 22:14:46;;;;;;;5.83;5.33;;;;;;;12.80;66.52;100486.78;3439366;81;21077;-76
2022/05/13 22:19:37;;;;;;;5.78;4.30;;;;;;;12.79;66.78;100491.58;3444900;81;20932;-76
2022/05/13 22:24:28;;;;;;;5.40;4.90;;;;;;;12.76;66.61;100491.55;3371960;82;21425;-76
2022/05/13 22:29:21;;;;;;;4.73;4.13;;;;;;;12.73;66.59;100492.43;3403016;81;21011;-77
2022/05/13 22:34:12;;;;;;;6.20;5.22;;;;;;;12.59;66.15;100487.14;3402477;81;21643;-76
2022/05/13 22:39:05;;;;;;;5.37;4.87;;;;;;;12.63;66.15;100502.81;3410887;81;20995;-76
2022/05/13 22:43:56;;;;;;;4.80;4.40;;;;;;;12.56;66.10;100505.81;3429407;81;20951;-76
2022/05/13 22:48:47;;;;;;;4.83;4.40;;;;;;;12.56;66.22;100512.33;3453054;81;21007;-76
2022/05/13 22:53:38;;;;;;;4.37;3.90;;;;;;;12.47;66.13;100523.58;3379151;81;21559;-76
2022/05/13 22:58:29;;;;;;;4.60;4.10;;;;;;;12.36;65.97;100522.64;3429123;81;20970;-76
2022/05/13 23:03:21;;;;;;;5.15;3.90;;;;;;;12.28;65.90;100519.10;3436379;81;21047;-77
2022/05/13 23:13:21;;;;;;;4.72;4.17;;;;;;;12.12;65.97;100508.55;3456845;81;22051;-78
2022/05/13 23:18:13;;;;;;;4.17;3.83;;;;;;;12.11;65.85;100503.36;3404997;81;20975;-78
2022/05/13 23:23:04;;;;;;;4.35;3.98;;;;;;;12.05;66.02;100513.28;3387429;81;20947;-78
2022/05/13 23:27:56;;;;;;;6.08;4.35;;;;;;;11.98;66.02;100515.39;3413197;81;21705;-78
2022/05/13 23:32:47;;;;;;;7.67;4.40;;;;;;;11.91;66.08;100529.23;3379975;81;20899;-78
2022/05/13 23:37:38;;;;;;;5.00;4.37;;;;;;;11.80;66.03;100526.50;3431123;81;20924;-79
2022/05/13 23:42:29;;;;;;;4.22;3.92;;;;;;;11.77;66.18;100526.06;3443642;81;21687;-78
2022/05/13 23:47:21;;;;;;;8.18;4.53;;;;;;;11.70;65.88;100522.95;3450631;81;20883;-78
2022/05/13 23:57:27;;;;;;;7.55;5.10;;;;;;;11.64;66.16;100528.09;3464885;81;20965;-78
